Time;durP1;ratioP1;P1;durP2;ratioP2;P2;SDS_P1;SDS_P2;PMS_P1;PMS_P2;Temp;Humidity;BMP_temperature;BMP_pressure;BME280_temperature;BME280_humidity;BME280_pressure;Samples;Min_cycle;Max_cycle;Signal;HPM_P1;HPM_P2
2023/08/28 00:01:14;;;;;;;8.13;4.67;;;23.20;99.90;;;;;;5036106;28;20470;-49
2023/08/28 00:03:44;;;;;;;4.37;3.97;;;23.20;99.90;;;;;;5032343;28;21190;-51
2023/08/28 00:06:11;;;;;;;7.80;4.50;;;23.30;99.90;;;;;;5032050;28;21018;-51
2023/08/28 00:08:37;;;;;;;4.57;3.70;;;23.20;99.90;;;;;;5036564;28;20461;-52
2023/08/28 00:11:04;;;;;;;5.87;3.90;;;23.20;99.90;;;;;;5032599;28;20981;-54
2023/08/28 00:13:31;;;;;;;4.20;3.80;;;23.20;99.90;;;;;;5034688;28;20465;-52
2023/08/28 00:15:58;;;;;;;6.10;4.10;;;23.20;99.90;;;;;;5036177;28;20468;-54
2023/08/28 00:18:24;;;;;;;4.20;3.20;;;23.20;99.90;;;;;;5032344;28;20457;-51
2023/08/28 00:20:53;;;;;;;5.23;4.50;;;23.20;99.90;;;;;;5034069;28;20461;-53
2023/08/28 00:23:20;;;;;;;5.53;3.43;;;23.20;99.90;;;;;;5036289;28;20458;-59
2023/08/28 00:25:46;;;;;;;4.73;3.57;;;23.20;99.90;;;;;;5034731;28;20477;-59
2023/08/28 00:28:13;;;;;;;5.27;3.83;;;23.20;99.90;;;;;;5037934;28;20544;-53
2023/08/28 00:30:40;;;;;;;5.13;3.70;;;23.20;99.90;;;;;;5035396;28;20504;-50
2023/08/28 00:33:06;;;;;;;5.70;4.97;;;23.20;99.90;;;;;;5034988;28;20698;-53
2023/08/28 00:35:33;;;;;;;5.13;3.40;;;23.20;99.90;;;;;;5035527;28;20472;-56
2023/08/28 00:38:01;;;;;;;6.90;3.33;;;23.20;99.90;;;;;;5037941;28;20461;-55
2023/08/28 00:40:28;;;;;;;3.77;3.20;;;23.20;99.90;;;;;;5036093;28;20453;-52
2023/08/28 00:42:54;;;;;;;5.40;3.90;;;23.20;99.90;;;;;;5037150;28;20461;-53
2023/08/28 00:45:21;;;;;;;6.40;4.77;;;23.20;99.90;;;;;;5035389;28;20497;-57
2023/08/28 00:47:48;;;;;;;5.90;4.10;;;23.20;99.90;;;;;;5041856;28;20516;-56
2023/08/28 00:50:15;;;;;;;5.77;3.83;;;23.20;99.90;;;;;;5035494;28;20453;-52
2023/08/28 00:52:42;;;;;;;6.40;4.07;;;23.20;99.90;;;;;;5043205;28;20913;-55
2023/08/28 00:55:10;;;;;;;6.03;4.30;;;23.10;99.90;;;;;;5038572;28;20969;-51
2023/08/28 00:57:37;;;;;;;5.37;3.70;;;23.10;99.90;;;;;;5040929;28;20461;-54
2023/08/28 01:00:06;;;;;;;4.87;4.13;;;23.20;99.90;;;;;;5040810;28;21458;-56
2023/08/28 01:02:33;;;;;;;4.47;3.77;;;23.10;99.90;;;;;;5042222;28;20466;-51
2023/08/28 01:05:00;;;;;;;5.50;3.90;;;23.10;99.90;;;;;;5009624;22;20836;-64
2023/08/28 01:07:34;;;;;;;6.50;3.60;;;23.10;99.90;;;;;;4990872;28;20463;-63
2023/08/28 01:10:08;;;;;;;5.07;4.07;;;23.10;99.90;;;;;;4990690;28;20470;-64
2023/08/28 01:12:47;;;;;;;3.37;2.90;;;23.10;99.90;;;;;;4993399;28;20942;-64
2023/08/28 01:15:18;;;;;;;5.40;3.47;;;23.10;99.90;;;;;;4993732;28;21010;-64
2023/08/28 01:17:47;;;;;;;3.60;3.30;;;23.10;99.90;;;;;;4995761;28;20829;-64
2023/08/28 01:20:15;;;;;;;5.00;3.90;;;23.10;99.90;;;;;;4985887;28;20545;-64
2023/08/28 01:22:50;;;;;;;5.20;3.03;;;23.10;99.90;;;;;;4990475;28;20575;-64
2023/08/28 01:25:18;;;;;;;3.43;3.13;;;23.10;99.90;;;;;;4987771;28;20488;-64
2023/08/28 01:27:45;;;;;;;4.20;3.60;;;23.10;99.90;;;;;;4989888;28;20853;-62
2023/08/28 01:30:14;;;;;;;5.27;3.87;;;23.10;99.90;;;;;;4994087;28;20459;-64
2023/08/28 01:32:42;;;;;;;4.80;3.50;;;23.10;99.90;;;;;;4993147;28;20463;-62
2023/08/28 01:35:13;;;;;;;3.67;3.33;;;23.10;99.90;;;;;;4989964;28;20989;-64
2023/08/28 01:37:49;;;;;;;4.70;3.53;;;23.10;99.90;;;;;;4997406;28;20463;-64
2023/08/28 01:40:21;;;;;;;4.53;3.57;;;23.10;99.90;;;;;;4993089;28;20460;-64
2023/08/28 01:42:49;;;;;;;6.23;3.93;;;23.10;99.90;;;;;;4980546;28;20974;-65
2023/08/28 01:45:16;;;;;;;4.63;3.57;;;23.10;99.90;;;;;;4981095;28;21079;-64
2023/08/28 01:47:43;;;;;;;3.93;3.50;;;23.10;99.90;;;;;;4994240;28;20480;-64
2023/08/28 01:50:10;;;;;;;5.23;3.70;;;23.00;99.90;;;;;;4989866;28;20551;-65
2023/08/28 01:52:37;;;;;;;3.63;3.20;;;23.00;99.90;;;;;;4986492;28;20860;-64
2023/08/28 01:55:05;;;;;;;3.17;2.87;;;23.00;99.90;;;;;;4985914;28;20550;-64
2023/08/28 01:57:33;;;;;;;6.80;3.57;;;23.00;99.90;;;;;;4988956;28;20451;-65
2023/08/28 01:59:59;;;;;;;4.20;3.50;;;23.00;99.90;;;;;;4991316;28;20464;-65
2023/08/28 02:02:26;;;;;;;4.20;3.13;;;23.00;99.90;;;;;;4989444;28;20457;-66
2023/08/28 02:04:53;;;;;;;3.50;3.03;;;23.00;99.90;;;;;;4985193;28;20537;-64
2023/08/28 02:07:19;;;;;;;4.27;3.30;;;23.00;99.90;;;;;;4988774;28;21088;-64
2023/08/28 02:09:47;;;;;;;4.37;3.20;;;23.00;99.90;;;;;;4991739;28;20757;-65
2023/08/28 02:12:14;;;;;;;5.53;4.07;;;23.00;99.90;;;;;;4985147;28;20562;-64
2023/08/28 02:14:42;;;;;;;4.60;3.13;;;23.00;99.90;;;;;;4990878;28;20459;-65
2023/08/28 02:17:08;;;;;;;3.87;2.77;;;23.00;99.90;;;;;;4993380;28;20966;-64
2023/08/28 02:19:35;;;;;;;3.77;3.00;;;23.00;99.90;;;;;;4997706;28;20490;-64
2023/08/28 02:22:02;;;;;;;3.73;3.27;;;23.00;99.90;;;;;;4993443;28;20471;-64
2023/08/28 02:24:28;;;;;;;4.63;3.77;;;23.00;99.90;;;;;;4993404;28;20464;-65
2023/08/28 02:26:55;;;;;;;4.80;3.40;;;23.00;99.90;;;;;;4986761;28;20953;-64
2023/08/28 02:29:22;;;;;;;4.53;3.70;;;23.00;99.90;;;;;;4985941;28;22229;-64
2023/08/28 02:31:50;;;;;;;4.80;3.10;;;23.00;99.90;;;;;;4987338;28;20820;-65
2023/08/28 02:34:17;;;;;;;3.90;2.87;;;23.00;99.90;;;;;;4987639;28;20711;-64
2023/08/28 02:36:43;;;;;;;4.10;3.43;;;23.00;99.90;;;;;;4994138;28;20473;-64
2023/08/28 02:39:10;;;;;;;2.70;2.33;;;23.00;99.90;;;;;;4992421;28;20820;-64
2023/08/28 02:41:37;;;;;;;3.30;3.00;;;23.00;99.90;;;;;;4987197;28;20483;-65
2023/08/28 02:44:04;;;;;;;4.30;3.13;;;23.00;99.90;;;;;;4985700;28;20456;-64
2023/08/28 02:46:30;;;;;;;4.40;3.00;;;22.90;99.90;;;;;;4983466;28;20517;-65
2023/08/28 02:48:59;;;;;;;5.97;3.40;;;23.00;99.90;;;;;;4991209;28;20477;-64
2023/08/28 02:51:25;;;;;;;4.53;3.00;;;23.00;99.90;;;;;;4992098;28;20980;-65
2023/08/28 02:53:52;;;;;;;4.50;3.20;;;22.90;99.90;;;;;;4988378;28;20474;-63
2023/08/28 02:56:27;;;;;;;3.37;2.60;;;22.90;99.90;;;;;;4991867;28;20647;-65
2023/08/28 02:58:54;;;;;;;5.60;3.33;;;22.90;99.90;;;;;;4987008;28;20459;-65
2023/08/28 03:01:21;;;;;;;4.50;3.90;;;22.90;99.90;;;;;;4983575;28;20476;-64
2023/08/28 03:03:48;;;;;;;4.03;3.30;;;22.90;99.90;;;;;;4982139;28;20479;-64
2023/08/28 03:06:16;;;;;;;4.20;3.07;;;22.90;99.90;;;;;;4987351;28;20482;-65
2023/08/28 03:08:43;;;;;;;3.87;2.93;;;22.90;99.90;;;;;;4987170;28;20472;-65
2023/08/28 03:11:10;;;;;;;4.27;2.83;;;22.90;99.90;;;;;;4987616;28;20463;-64
2023/08/28 03:13:36;;;;;;;4.13;3.73;;;22.90;99.90;;;;;;4988861;28;20464;-65
2023/08/28 03:16:03;;;;;;;4.57;3.67;;;22.90;99.90;;;;;;4979717;28;20459;-65
2023/08/28 03:18:30;;;;;;;2.93;2.63;;;22.90;99.90;;;;;;4987472;28;20467;-64
2023/08/28 03:20:56;;;;;;;3.57;3.27;;;22.90;99.90;;;;;;4983580;28;20465;-64
2023/08/28 03:23:25;;;;;;;3.03;2.73;;;22.90;99.90;;;;;;4987617;28;20871;-64
2023/08/28 03:25:51;;;;;;;3.80;3.50;;;22.90;99.90;;;;;;4984221;28;20491;-64
2023/08/28 03:28:18;;;;;;;5.00;3.63;;;22.90;99.90;;;;;;4986088;28;20496;-63
2023/08/28 03:30:45;;;;;;;3.60;2.40;;;22.90;99.90;;;;;;4982837;28;20766;-64
2023/08/28 03:33:11;;;;;;;4.77;3.30;;;22.90;99.90;;;;;;4985882;28;20471;-63
2023/08/28 03:35:38;;;;;;;2.77;2.47;;;22.90;99.90;;;;;;4984087;28;20460;-64
2023/08/28 03:38:05;;;;;;;4.10;2.93;;;22.90;99.90;;;;;;4983552;28;20472;-65
2023/08/28 03:40:36;;;;;;;3.30;2.70;;;22.90;99.90;;;;;;4985692;28;20470;-65
2023/08/28 03:43:03;;;;;;;3.23;2.60;;;22.90;99.90;;;;;;4980855;28;20468;-65
2023/08/28 03:45:30;;;;;;;3.07;2.80;;;22.80;99.90;;;;;;4982716;28;20479;-65
2023/08/28 03:47:57;;;;;;;3.33;2.50;;;22.80;99.90;;;;;;4982718;28;20475;-64
2023/08/28 03:50:24;;;;;;;2.93;2.63;;;22.80;99.90;;;;;;4983389;28;20503;-64
2023/08/28 03:52:50;;;;;;;3.27;2.90;;;22.80;99.90;;;;;;4985285;28;20459;-64
2023/08/28 03:55:17;;;;;;;3.33;2.67;;;22.80;99.90;;;;;;4984845;28;20472;-65
2023/08/28 03:57:45;;;;;;;3.20;2.50;;;22.80;99.90;;;;;;4983556;28;20975;-66
2023/08/28 04:00:14;;;;;;;4.23;2.83;;;22.80;99.90;;;;;;4982648;28;20460;-65
2023/08/28 04:02:41;;;;;;;3.63;3.00;;;22.80;99.90;;;;;;4983993;28;21045;-64
2023/08/28 04:05:08;;;;;;;4.33;2.90;;;22.80;99.90;;;;;;4986665;28;20797;-65
2023/08/28 04:07:35;;;;;;;3.13;2.83;;;22.80;99.90;;;;;;4982276;28;20498;-64
2023/08/28 04:10:02;;;;;;;3.20;2.90;;;22.80;99.90;;;;;;4983551;28;20475;-64
2023/08/28 04:12:28;;;;;;;3.63;2.70;;;22.80;99.90;;;;;;4984938;28;20460;-64
2023/08/28 04:14:57;;;;;;;3.30;3.00;;;22.80;99.90;;;;;;4987839;28;20461;-64
2023/08/28 04:17:24;;;;;;;3.20;2.87;;;22.80;99.90;;;;;;4986237;28;21000;-64
2023/08/28 04:19:52;;;;;;;4.43;2.67;;;22.80;99.90;;;;;;4984962;28;21026;-63
2023/08/28 04:22:19;;;;;;;3.00;2.50;;;22.80;99.90;;;;;;4988591;28;20474;-63
2023/08/28 04:24:46;;;;;;;3.60;2.60;;;22.80;99.90;;;;;;4993212;28;20466;-63
2023/08/28 04:27:13;;;;;;;3.30;3.00;;;22.80;99.90;;;;;;4993264;28;20839;-63
2023/08/28 04:29:40;;;;;;;3.67;2.23;;;22.80;99.90;;;;;;4989993;28;21057;-62
2023/08/28 04:32:08;;;;;;;5.70;2.80;;;22.80;99.90;;;;;;4991871;28;20472;-63
2023/08/28 04:34:35;;;;;;;3.03;2.63;;;22.80;99.90;;;;;;4989184;28;20998;-63
2023/08/28 04:37:02;;;;;;;2.83;2.17;;;22.80;99.90;;;;;;4986865;28;20465;-63
2023/08/28 04:39:29;;;;;;;2.33;2.13;;;22.80;99.90;;;;;;4988770;28;20819;-62
2023/08/28 04:41:56;;;;;;;3.30;2.50;;;22.70;99.90;;;;;;4993132;28;20459;-62
2023/08/28 04:44:22;;;;;;;2.97;2.70;;;22.80;99.90;;;;;;4991593;28;20464;-62
2023/08/28 04:46:49;;;;;;;2.80;2.60;;;22.80;99.90;;;;;;4985515;28;20569;-65
2023/08/28 04:49:17;;;;;;;3.13;2.90;;;22.80;99.90;;;;;;4986823;28;20463;-64
2023/08/28 04:51:44;;;;;;;3.00;2.67;;;22.80;99.90;;;;;;4987437;28;20463;-64
2023/08/28 04:54:10;;;;;;;3.47;2.93;;;22.70;99.90;;;;;;4987613;28;21009;-64
2023/08/28 04:56:37;;;;;;;4.03;2.80;;;22.70;99.90;;;;;;4985449;28;20486;-64
2023/08/28 04:59:05;;;;;;;2.43;2.23;;;22.80;99.90;;;;;;4983821;28;20468;-64
2023/08/28 05:01:32;;;;;;;2.60;2.33;;;22.70;99.90;;;;;;4982141;28;20464;-65
2023/08/28 05:03:59;;;;;;;3.57;2.40;;;22.80;99.90;;;;;;4981096;28;20472;-65
2023/08/28 05:06:27;;;;;;;2.37;2.17;;;22.70;99.90;;;;;;4985460;28;20483;-64
2023/08/28 05:08:53;;;;;;;3.07;2.17;;;22.70;99.90;;;;;;4983119;28;20979;-64
2023/08/28 05:11:20;;;;;;;4.23;3.20;;;22.70;99.90;;;;;;4982489;28;20543;-64
2023/08/28 05:13:47;;;;;;;2.70;2.27;;;22.70;99.90;;;;;;4985024;28;20470;-65
2023/08/28 05:16:13;;;;;;;2.80;2.10;;;22.70;99.90;;;;;;4982925;28;21638;-64
2023/08/28 05:18:40;;;;;;;2.33;2.10;;;22.70;99.90;;;;;;4984275;28;20467;-64
2023/08/28 05:21:07;;;;;;;3.70;2.43;;;22.70;99.90;;;;;;4980260;28;20565;-65
2023/08/28 05:23:35;;;;;;;2.13;1.93;;;22.70;99.90;;;;;;4982126;28;20471;-65
2023/08/28 05:26:02;;;;;;;2.67;1.87;;;22.70;99.90;;;;;;4979815;28;20487;-65
2023/08/28 05:28:31;;;;;;;2.70;2.13;;;22.70;99.90;;;;;;4988040;28;20790;-64
2023/08/28 05:30:58;;;;;;;3.30;2.53;;;22.70;99.90;;;;;;4988235;28;20874;-64
2023/08/28 05:33:24;;;;;;;2.70;2.40;;;22.70;99.90;;;;;;4995298;28;20469;-64
2023/08/28 05:35:51;;;;;;;2.80;2.53;;;22.70;99.90;;;;;;4993845;28;20463;-64
2023/08/28 05:38:18;;;;;;;2.50;2.30;;;22.70;99.90;;;;;;4988143;28;20474;-64
2023/08/28 05:40:47;;;;;;;4.50;2.60;;;22.70;99.90;;;;;;4989932;28;20789;-64
2023/08/28 05:43:13;;;;;;;3.23;2.00;;;22.70;99.90;;;;;;4989204;28;20457;-64
2023/08/28 05:45:40;;;;;;;3.00;2.23;;;22.70;99.90;;;;;;4990044;28;20546;-64
2023/08/28 05:48:08;;;;;;;3.87;2.90;;;22.70;99.90;;;;;;4996193;28;20510;-64
2023/08/28 05:50:36;;;;;;;3.00;2.20;;;22.70;99.90;;;;;;4989961;28;20810;-64
2023/08/28 05:53:03;;;;;;;3.43;2.07;;;22.70;99.90;;;;;;4988205;28;21053;-68
2023/08/28 05:55:30;;;;;;;3.20;2.33;;;22.70;99.90;;;;;;4979031;28;20467;-65
2023/08/28 05:57:58;;;;;;;2.73;1.87;;;22.70;99.90;;;;;;4983467;28;20964;-66
2023/08/28 06:00:27;;;;;;;3.03;2.40;;;22.70;99.90;;;;;;4986561;28;20835;-67
2023/08/28 06:02:53;;;;;;;3.97;2.30;;;22.70;99.90;;;;;;4983640;28;20466;-65
2023/08/28 06:05:20;;;;;;;2.53;2.30;;;22.70;99.90;;;;;;4981873;28;20490;-67
2023/08/28 06:07:47;;;;;;;2.67;2.30;;;22.70;99.90;;;;;;4983239;28;20991;-65
2023/08/28 06:10:17;;;;;;;2.33;2.03;;;22.70;99.90;;;;;;4981337;28;20465;-65
2023/08/28 06:12:44;;;;;;;2.80;2.30;;;22.70;99.90;;;;;;4990054;28;20456;-66
2023/08/28 06:15:13;;;;;;;2.77;2.13;;;22.70;99.90;;;;;;4986953;28;20464;-66
2023/08/28 06:17:40;;;;;;;5.60;2.20;;;22.70;99.90;;;;;;4985934;28;20979;-68
2023/08/28 06:20:09;;;;;;;2.00;1.80;;;22.70;99.90;;;;;;4987369;28;20474;-69
2023/08/28 06:22:36;;;;;;;3.27;2.07;;;22.70;99.90;;;;;;4988270;28;20492;-68
2023/08/28 06:25:03;;;;;;;2.20;1.90;;;22.70;99.90;;;;;;4985550;28;21153;-69
2023/08/28 06:27:30;;;;;;;1.80;1.70;;;22.70;99.90;;;;;;4985778;28;20497;-70
2023/08/28 06:29:57;;;;;;;2.33;2.13;;;22.70;99.90;;;;;;4995168;28;20462;-66
2023/08/28 06:32:25;;;;;;;4.70;2.30;;;22.70;99.90;;;;;;4994449;28;20482;-64
2023/08/28 06:34:52;;;;;;;2.63;2.20;;;22.70;99.90;;;;;;4996648;28;20439;-64
2023/08/28 06:37:18;;;;;;;2.03;1.83;;;22.80;99.90;;;;;;4985569;28;20471;-67
2023/08/28 06:39:45;;;;;;;2.37;2.10;;;22.80;99.90;;;;;;4984407;28;20579;-68
2023/08/28 06:42:12;;;;;;;9.93;2.00;;;22.80;99.90;;;;;;4982303;28;20467;-67
2023/08/28 06:44:39;;;;;;;3.37;2.07;;;22.80;99.90;;;;;;4991509;28;20492;-67
2023/08/28 06:47:06;;;;;;;2.73;1.93;;;22.80;99.90;;;;;;4987113;28;20487;-69
2023/08/28 06:49:34;;;;;;;2.60;1.90;;;22.80;99.90;;;;;;4994697;28;20489;-70
2023/08/28 06:52:01;;;;;;;3.27;2.40;;;22.80;99.90;;;;;;4991808;28;20485;-69
2023/08/28 06:54:27;;;;;;;2.10;1.90;;;22.80;99.90;;;;;;4990708;28;20471;-64
2023/08/28 06:56:54;;;;;;;3.13;2.10;;;22.80;99.90;;;;;;4991529;28;20473;-68
2023/08/28 06:59:21;;;;;;;2.27;2.07;;;22.80;99.90;;;;;;4993830;28;20815;-69
2023/08/28 07:01:47;;;;;;;3.40;2.00;;;22.80;99.90;;;;;;4990500;28;20459;-67
2023/08/28 07:04:14;;;;;;;3.97;2.10;;;22.80;99.90;;;;;;4992712;28;20463;-67
2023/08/28 07:06:42;;;;;;;3.10;2.00;;;22.80;99.90;;;;;;4989220;28;20487;-67
2023/08/28 07:09:09;;;;;;;2.83;2.63;;;22.80;99.90;;;;;;4988919;28;20471;-68
2023/08/28 07:11:36;;;;;;;3.20;2.30;;;22.80;99.90;;;;;;4992597;28;20471;-68
2023/08/28 07:14:03;;;;;;;2.20;2.00;;;22.80;99.90;;;;;;4991917;28;20553;-68
2023/08/28 07:16:31;;;;;;;2.13;1.93;;;22.80;99.90;;;;;;4988881;28;20463;-66
2023/08/28 07:18:57;;;;;;;2.23;2.00;;;22.80;99.90;;;;;;4991490;28;20907;-67
2023/08/28 07:21:24;;;;;;;2.27;2.07;;;22.80;99.90;;;;;;4991836;28;21024;-67
2023/08/28 07:23:52;;;;;;;2.97;1.80;;;22.80;99.90;;;;;;4984341;28;20463;-69
2023/08/28 07:26:19;;;;;;;3.53;1.90;;;22.80;99.90;;;;;;4990338;28;20460;-68
2023/08/28 07:28:48;;;;;;;2.53;1.70;;;22.80;99.90;;;;;;4991732;28;20448;-68
2023/08/28 07:31:15;;;;;;;2.20;1.80;;;22.80;99.90;;;;;;4989115;28;20492;-68
2023/08/28 07:33:42;;;;;;;2.33;1.70;;;22.80;99.90;;;;;;4985278;28;20471;-68
2023/08/28 07:36:09;;;;;;;2.70;2.00;;;22.80;99.90;;;;;;4980726;28;20827;-67
2023/08/28 07:38:36;;;;;;;2.30;2.10;;;22.80;99.90;;;;;;4984114;28;20461;-68
2023/08/28 07:41:04;;;;;;;1.60;1.50;;;22.80;99.90;;;;;;4991866;28;20451;-67
2023/08/28 07:43:31;;;;;;;3.23;2.10;;;22.80;99.90;;;;;;4991354;28;20487;-69
2023/08/28 07:45:57;;;;;;;2.20;1.73;;;22.80;99.90;;;;;;4982768;28;20808;-67
2023/08/28 07:48:24;;;;;;;2.33;1.60;;;22.90;99.90;;;;;;4982449;28;20520;-67
2023/08/28 07:50:51;;;;;;;1.60;1.50;;;22.90;99.90;;;;;;4978595;28;20464;-67
2023/08/28 07:53:17;;;;;;;2.33;1.80;;;22.90;99.90;;;;;;4986982;28;20955;-69
2023/08/28 07:55:44;;;;;;;2.50;1.93;;;22.90;99.90;;;;;;4980808;28;20475;-67
2023/08/28 07:58:13;;;;;;;1.73;1.53;;;22.80;99.90;;;;;;4987744;28;20471;-73
2023/08/28 08:00:40;;;;;;;2.43;2.20;;;22.90;99.90;;;;;;4983590;28;20467;-68
2023/08/28 08:03:07;;;;;;;6.20;1.90;;;22.90;99.90;;;;;;4989189;28;20818;-72
2023/08/28 08:05:33;;;;;;;2.23;2.03;;;22.90;99.90;;;;;;4981345;28;20486;-72
2023/08/28 08:08:00;;;;;;;2.43;2.10;;;22.90;99.90;;;;;;4982480;28;21062;-69
2023/08/28 08:10:27;;;;;;;2.70;1.73;;;22.90;99.90;;;;;;4987526;28;20466;-66
2023/08/28 08:12:54;;;;;;;5.97;2.50;;;22.90;99.90;;;;;;4991745;28;20466;-69
2023/08/28 08:15:22;;;;;;;3.23;2.03;;;22.90;99.90;;;;;;4984029;28;20467;-72
2023/08/28 08:17:49;;;;;;;2.50;1.90;;;22.90;99.90;;;;;;4987641;28;20836;-65
2023/08/28 08:20:16;;;;;;;2.33;1.97;;;22.90;99.90;;;;;;4983769;28;20463;-68
2023/08/28 08:22:43;;;;;;;1.90;1.50;;;22.90;99.90;;;;;;4987006;28;20455;-65
2023/08/28 08:25:10;;;;;;;4.73;2.43;;;22.90;99.90;;;;;;4988410;28;20463;-67
2023/08/28 08:27:38;;;;;;;2.57;1.70;;;22.90;99.90;;;;;;4984379;28;20918;-68
2023/08/28 08:30:07;;;;;;;2.00;1.67;;;22.90;99.90;;;;;;4991050;28;20553;-72
2023/08/28 08:32:36;;;;;;;2.47;2.13;;;22.90;99.90;;;;;;4992724;28;20491;-67
2023/08/28 08:35:05;;;;;;;1.60;1.50;;;22.90;99.90;;;;;;4992394;28;20459;-66
2023/08/28 08:37:32;;;;;;;4.03;2.20;;;23.00;99.90;;;;;;4988815;28;20460;-65
2023/08/28 08:39:58;;;;;;;1.87;1.63;;;22.90;99.90;;;;;;4986591;28;20463;-65
2023/08/28 08:42:25;;;;;;;1.90;1.57;;;23.00;99.90;;;;;;4991278;28;21096;-69
2023/08/28 08:44:52;;;;;;;2.63;1.73;;;23.00;99.90;;;;;;4990508;28;20466;-64
2023/08/28 08:47:19;;;;;;;1.50;1.40;;;22.90;99.90;;;;;;4989815;28;20483;-70
2023/08/28 08:49:53;;;;;;;2.13;1.90;;;22.90;99.90;;;;;;4984141;28;20467;-67
2023/08/28 08:52:22;;;;;;;1.77;1.40;;;23.00;99.90;;;;;;4985891;28;20470;-70
2023/08/28 08:54:54;;;;;;;5.00;1.60;;;23.00;99.90;;;;;;4980923;28;20653;-68
2023/08/28 08:57:26;;;;;;;3.83;2.27;;;23.00;99.90;;;;;;4985811;28;20467;-68
2023/08/28 08:59:53;;;;;;;2.30;1.77;;;23.00;99.90;;;;;;4977497;28;20981;-63
2023/08/28 09:02:21;;;;;;;2.40;1.80;;;23.00;99.90;;;;;;4981513;28;20463;-68
2023/08/28 09:04:50;;;;;;;4.10;1.67;;;23.00;99.90;;;;;;4981987;28;20478;-68
2023/08/28 09:07:18;;;;;;;2.10;1.67;;;23.00;99.90;;;;;;4982210;28;21227;-74
2023/08/28 09:09:45;;;;;;;3.10;1.80;;;23.00;99.90;;;;;;4987792;28;20458;-67
2023/08/28 09:12:13;;;;;;;16.77;2.40;;;23.00;99.90;;;;;;4984276;28;20993;-69
2023/08/28 09:14:40;;;;;;;2.20;1.53;;;23.00;99.90;;;;;;4989101;28;20459;-71
2023/08/28 09:17:07;;;;;;;5.47;1.80;;;23.00;99.90;;;;;;4990552;28;20553;-67
2023/08/28 09:19:35;;;;;;;3.83;2.27;;;23.00;99.90;;;;;;4988044;28;20463;-65
2023/08/28 09:22:04;;;;;;;3.80;2.20;;;23.10;99.90;;;;;;4987348;28;20466;-69
2023/08/28 09:24:31;;;;;;;3.17;2.03;;;23.10;99.90;;;;;;4988549;28;20458;-65
2023/08/28 09:26:57;;;;;;;2.23;1.73;;;23.10;99.90;;;;;;4987277;28;20465;-72
2023/08/28 09:29:25;;;;;;;5.03;1.57;;;23.10;99.90;;;;;;4983697;28;20471;-75
2023/08/28 09:31:52;;;;;;;1.87;1.77;;;23.10;99.90;;;;;;4986753;28;20455;-72
2023/08/28 09:34:20;;;;;;;2.63;1.77;;;23.10;99.90;;;;;;4990717;28;20463;-70
2023/08/28 09:36:47;;;;;;;3.33;1.93;;;23.20;99.90;;;;;;4986891;28;20471;-71
2023/08/28 09:39:15;;;;;;;3.37;1.93;;;23.10;99.90;;;;;;4983583;28;20463;-67
2023/08/28 09:41:43;;;;;;;2.30;1.57;;;23.10;99.90;;;;;;4985223;28;20471;-71
2023/08/28 09:44:10;;;;;;;2.33;1.87;;;23.20;99.90;;;;;;4987543;28;20873;-70
2023/08/28 09:46:38;;;;;;;4.60;1.73;;;23.20;99.90;;;;;;4983751;28;20552;-70
2023/08/28 09:49:05;;;;;;;1.63;1.30;;;23.20;99.90;;;;;;4995319;28;20796;-70
2023/08/28 09:51:40;;;;;;;5.20;1.50;;;23.20;99.90;;;;;;4984274;28;20499;-68
2023/08/28 09:54:07;;;;;;;3.53;2.20;;;23.30;99.90;;;;;;4991595;28;21117;-66
2023/08/28 09:56:35;;;;;;;1.50;1.30;;;23.30;99.90;;;;;;4987156;28;20467;-67
2023/08/28 09:59:03;;;;;;;1.93;1.67;;;23.30;99.90;;;;;;4980198;28;20468;-66
2023/08/28 10:01:32;;;;;;;2.60;1.70;;;23.30;99.90;;;;;;4982913;28;20458;-65
2023/08/28 10:04:00;;;;;;;5.87;1.90;;;23.30;99.90;;;;;;4988198;28;20999;-66
2023/08/28 10:06:28;;;;;;;2.50;1.60;;;23.40;99.90;;;;;;4988110;28;20932;-65
2023/08/28 10:09:00;;;;;;;3.27;1.93;;;23.40;99.90;;;;;;4988202;28;20473;-63
2023/08/28 10:11:36;;;;;;;2.03;1.70;;;23.40;99.90;;;;;;4988921;28;20519;-65
2023/08/28 10:14:05;;;;;;;6.03;1.43;;;23.40;99.90;;;;;;4988473;28;21210;-61
2023/08/28 10:16:37;;;;;;;5.17;1.70;;;23.40;99.90;;;;;;4993322;28;20453;-62
2023/08/28 10:19:13;;;;;;;2.20;1.43;;;23.40;99.90;;;;;;4989219;28;20474;-64
2023/08/28 10:21:41;;;;;;;1.73;1.60;;;23.40;99.90;;;;;;4992317;28;20473;-68
2023/08/28 10:24:08;;;;;;;2.60;1.27;;;23.40;99.90;;;;;;4987659;28;20464;-67
2023/08/28 10:26:35;;;;;;;2.30;1.63;;;23.40;99.90;;;;;;4988004;28;20474;-68
2023/08/28 10:29:05;;;;;;;3.20;1.80;;;23.40;99.90;;;;;;4988882;28;20562;-70
2023/08/28 10:31:33;;;;;;;1.97;1.20;;;23.40;99.90;;;;;;4994593;28;20466;-69
2023/08/28 10:34:01;;;;;;;1.93;1.50;;;23.40;99.90;;;;;;4990331;28;20464;-67
2023/08/28 10:36:29;;;;;;;1.77;1.33;;;23.40;99.90;;;;;;4989455;28;20496;-65
2023/08/28 10:38:56;;;;;;;2.70;1.40;;;23.40;99.90;;;;;;4989169;28;21381;-65
2023/08/28 10:41:23;;;;;;;2.80;1.83;;;23.40;99.90;;;;;;4985507;28;20465;-70
2023/08/28 10:43:51;;;;;;;1.87;1.67;;;23.40;99.90;;;;;;4990144;28;20469;-70
2023/08/28 10:46:20;;;;;;;2.10;1.80;;;23.50;99.90;;;;;;4989040;28;20488;-65
2023/08/28 10:48:47;;;;;;;2.37;1.47;;;23.40;99.90;;;;;;4987655;28;20477;-73
2023/08/28 10:51:15;;;;;;;2.47;1.80;;;23.50;99.90;;;;;;5013156;22;20504;-88
2023/08/28 10:53:43;;;;;;;2.93;1.60;;;23.50;99.90;;;;;;5006514;28;20472;-86
2023/08/28 10:56:12;;;;;;;3.30;1.67;;;23.50;99.90;;;;;;5000854;28;20990;-85
2023/08/28 10:58:39;;;;;;;1.53;1.43;;;23.50;99.90;;;;;;5010265;28;20511;-84
2023/08/28 11:01:14;;;;;;;4.13;1.90;;;23.50;99.90;;;;;;5004678;28;20458;-84
2023/08/28 11:03:58;;;;;;;2.30;1.63;;;23.50;99.90;;;;;;5009732;28;21004;-85
2023/08/28 11:06:43;;;;;;;1.70;1.40;;;23.50;99.90;;;;;;5006523;28;20457;-86
2023/08/28 11:09:35;;;;;;;2.20;1.63;;;23.50;99.90;;;;;;4997734;28;21089;-85
2023/08/28 11:12:24;;;;;;;2.33;1.70;;;23.50;99.90;;;;;;5005291;28;20465;-85
2023/08/28 11:15:04;;;;;;;1.50;1.40;;;23.60;99.90;;;;;;5010113;28;20466;-87
2023/08/28 11:17:32;;;;;;;2.17;1.97;;;23.60;99.90;;;;;;5006165;28;20814;-88
2023/08/28 11:20:10;;;;;;;2.47;1.57;;;23.60;99.90;;;;;;5007699;28;20865;-86
2023/08/28 11:22:39;;;;;;;2.20;2.00;;;23.60;99.90;;;;;;5006655;28;20473;-82
2023/08/28 11:25:08;;;;;;;1.83;1.60;;;23.60;99.90;;;;;;5002951;28;20941;-84
2023/08/28 11:27:42;;;;;;;2.00;1.80;;;23.60;99.90;;;;;;5002513;28;20467;-80
2023/08/28 11:30:10;;;;;;;1.80;1.40;;;23.60;99.90;;;;;;5003674;28;20461;-83
2023/08/28 11:32:39;;;;;;;1.50;1.30;;;23.70;99.90;;;;;;5004556;28;20470;-80
2023/08/28 11:35:09;;;;;;;2.73;1.40;;;23.70;99.90;;;;;;5008011;28;20459;-83
2023/08/28 11:37:37;;;;;;;1.83;1.73;;;23.70;99.90;;;;;;5004007;28;20464;-84
2023/08/28 11:40:06;;;;;;;5.73;2.17;;;23.70;99.90;;;;;;5003099;28;20468;-83
2023/08/28 11:42:33;;;;;;;2.27;1.87;;;23.70;99.90;;;;;;5003768;28;20509;-83
2023/08/28 11:45:00;;;;;;;2.30;1.87;;;23.70;99.90;;;;;;5007686;28;20863;-82
2023/08/28 11:47:27;;;;;;;2.60;1.53;;;23.80;99.90;;;;;;5007769;28;20469;-84
2023/08/28 11:49:54;;;;;;;2.23;1.50;;;23.80;99.90;;;;;;5010652;28;20495;-87
2023/08/28 11:52:23;;;;;;;2.33;1.13;;;23.80;99.90;;;;;;5012577;28;20836;-85
2023/08/28 11:54:51;;;;;;;3.43;1.50;;;23.80;99.90;;;;;;5012739;28;20470;-83
2023/08/28 11:57:19;;;;;;;2.57;1.90;;;23.80;99.90;;;;;;5014567;28;20468;-85
2023/08/28 11:59:46;;;;;;;2.17;1.40;;;23.80;99.90;;;;;;5013676;28;20540;-86
2023/08/28 12:02:14;;;;;;;2.17;1.40;;;23.80;99.90;;;;;;5015985;28;20456;-81
2023/08/28 12:04:41;;;;;;;2.03;1.50;;;23.80;99.90;;;;;;5014763;28;20470;-85
2023/08/28 12:07:17;;;;;;;2.17;1.80;;;23.80;99.90;;;;;;5005409;28;20473;-82
2023/08/28 12:09:47;;;;;;;1.90;1.50;;;23.80;99.90;;;;;;5015829;28;20489;-81
2023/08/28 12:12:14;;;;;;;1.77;1.67;;;23.80;99.90;;;;;;5013933;28;20465;-81
2023/08/28 12:14:43;;;;;;;2.30;1.80;;;23.80;99.90;;;;;;5014288;28;20884;-81
2023/08/28 12:17:14;;;;;;;1.87;1.37;;;23.80;99.90;;;;;;5009525;28;20857;-82
2023/08/28 12:19:40;;;;;;;2.53;1.23;;;23.90;99.90;;;;;;5009278;28;20457;-82
2023/08/28 12:22:10;;;;;;;1.30;1.20;;;23.80;99.90;;;;;;5011470;28;20482;-91
2023/08/28 12:24:40;;;;;;;1.50;1.40;;;23.90;99.90;;;;;;5008204;28;20532;-90
2023/08/28 12:27:08;;;;;;;2.70;1.50;;;23.90;99.90;;;;;;5008228;28;20466;-82
2023/08/28 12:29:35;;;;;;;2.20;1.40;;;23.90;99.90;;;;;;5008987;28;21016;-80
2023/08/28 12:32:05;;;;;;;2.57;1.67;;;23.90;99.90;;;;;;5010737;28;20457;-81
2023/08/28 12:34:33;;;;;;;5.23;1.67;;;23.90;99.90;;;;;;5010011;28;20458;-81
2023/08/28 12:37:11;;;;;;;1.50;1.40;;;23.90;99.90;;;;;;5005169;28;20464;-80
2023/08/28 12:39:46;;;;;;;2.87;1.20;;;23.90;99.90;;;;;;5012872;28;20500;-81
2023/08/28 12:42:14;;;;;;;3.00;1.50;;;23.90;99.90;;;;;;5012326;28;20524;-80
2023/08/28 12:44:43;;;;;;;2.27;1.67;;;23.90;99.90;;;;;;5011061;28;20957;-81
2023/08/28 12:47:10;;;;;;;3.13;1.53;;;23.90;99.90;;;;;;5013619;28;20464;-78
2023/08/28 12:49:36;;;;;;;3.90;1.50;;;23.90;99.90;;;;;;5011833;28;20523;-79
2023/08/28 12:52:03;;;;;;;1.60;1.20;;;23.90;99.90;;;;;;5012630;28;20474;-79